Time;durP1;ratioP1;P1;durP2;ratioP2;P2;SDS_P1;SDS_P2;PMS_P1;PMS_P2;Temp;Humidity;BMP_temperature;BMP_pressure;BME280_temperature;BME280_humidity;BME280_pressure;Samples;Min_cycle;Max_cycle;Signal;HPM_P1;HPM_P2
2022/02/17 00:02:26;;;;;;;30.98;13.07;;;11.10;70.50;;;;;;6235228;28;20088;-72
2022/02/17 00:05:27;;;;;;;31.80;13.48;;;11.10;70.50;;;;;;6232327;28;20033;-72
2022/02/17 00:08:28;;;;;;;36.58;14.80;;;11.10;70.70;;;;;;6219494;28;20068;-72
2022/02/17 00:11:29;;;;;;;35.50;13.80;;;11.10;71.40;;;;;;6234511;28;20049;-72
2022/02/17 00:14:30;;;;;;;25.52;12.27;;;11.10;70.50;;;;;;6220487;28;20038;-71
2022/02/17 00:17:32;;;;;;;29.73;13.38;;;11.10;70.60;;;;;;6220196;28;20048;-72
2022/02/17 00:20:33;;;;;;;24.85;12.00;;;11.10;70.60;;;;;;6220254;28;20328;-71
2022/02/17 00:23:35;;;;;;;30.92;13.50;;;11.10;70.70;;;;;;6217426;28;20041;-72
2022/02/17 00:26:36;;;;;;;29.23;12.95;;;11.20;70.60;;;;;;6219225;28;20048;-72
2022/02/17 00:29:37;;;;;;;25.60;12.68;;;11.20;70.60;;;;;;6220447;28;20459;-71
2022/02/17 00:32:38;;;;;;;28.35;11.35;;;11.30;70.70;;;;;;6217191;28;20041;-71
2022/02/17 00:36:18;;;;;;;26.15;12.18;;;11.20;70.50;;;;;;6233718;28;20030;-71
2022/02/17 00:39:20;;;;;;;20.10;7.80;;;11.30;70.50;;;;;;6196865;28;20533;-71
2022/02/17 00:42:23;;;;;;;27.17;12.13;;;11.30;70.40;;;;;;6217884;28;20066;-71
2022/02/17 00:45:24;;;;;;;24.98;11.60;;;11.30;70.50;;;;;;6220312;28;20081;-72
2022/02/17 00:48:25;;;;;;;21.45;10.38;;;11.30;70.50;;;;;;6219792;28;20045;-72
2022/02/17 00:51:26;;;;;;;26.27;11.82;;;11.30;70.40;;;;;;6218986;28;20034;-72
2022/02/17 00:54:27;;;;;;;22.23;10.25;;;11.30;70.40;;;;;;6211965;28;20038;-72
2022/02/17 00:57:28;;;;;;;26.27;12.10;;;11.30;70.40;;;;;;6218574;28;20494;-72
2022/02/17 01:00:29;;;;;;;33.95;13.88;;;11.40;70.30;;;;;;6234701;28;20116;-72
2022/02/17 01:03:38;;;;;;;27.17;12.18;;;11.30;70.20;;;;;;6217379;28;20042;-71
2022/02/17 01:06:39;;;;;;;26.80;13.05;;;11.40;70.20;;;;;;6235710;28;20042;-72
2022/02/17 01:09:40;;;;;;;31.92;14.32;;;11.30;70.00;;;;;;6236183;28;20034;-72
2022/02/17 01:12:41;;;;;;;26.85;12.75;;;11.30;69.80;;;;;;6219833;28;20519;-72
2022/02/17 01:16:13;;;;;;;32.55;14.02;;;11.30;70.00;;;;;;6235974;28;20030;-72
2022/02/17 01:19:14;;;;;;;26.45;12.48;;;11.30;70.10;;;;;;6235249;28;20034;-72
2022/02/17 01:22:20;;;;;;;27.90;12.85;;;11.20;70.00;;;;;;6219861;28;20053;-72
2022/02/17 01:25:27;;;;;;;32.97;14.45;;;11.20;70.10;;;;;;6222845;28;20047;-72
2022/02/17 01:28:29;;;;;;;33.85;15.52;;;11.20;70.20;;;;;;6232258;28;20477;-72
2022/02/17 01:31:31;;;;;;;32.47;13.70;;;11.20;70.10;;;;;;6226347;28;20034;-72
2022/02/17 01:34:44;;;;;;;31.20;14.05;;;11.20;70.20;;;;;;6227687;28;20072;-71
2022/02/17 01:37:46;;;;;;;28.80;13.80;;;11.20;70.20;;;;;;6235367;28;20042;-72
2022/02/17 01:40:48;;;;;;;32.95;14.05;;;11.20;70.30;;;;;;6219081;28;20092;-71
2022/02/17 01:43:50;;;;;;;29.02;14.43;;;11.20;70.30;;;;;;6215219;28;20065;-72
2022/02/17 01:46:51;;;;;;;27.23;13.32;;;11.30;70.50;;;;;;6216113;28;20053;-71
2022/02/17 01:49:52;;;;;;;35.92;15.13;;;11.20;70.40;;;;;;6218514;28;20099;-72
2022/02/17 01:52:54;;;;;;;27.10;13.63;;;11.30;70.50;;;;;;6221483;28;20038;-72
2022/02/17 01:56:10;;;;;;;31.10;13.27;;;11.30;70.40;;;;;;6213369;28;20104;-71
2022/02/17 01:59:13;;;;;;;30.73;14.02;;;11.30;70.30;;;;;;6199679;28;20046;-71
2022/02/17 02:02:21;;;;;;;39.75;15.48;;;11.30;70.20;;;;;;6214196;28;20041;-71
2022/02/17 02:05:30;;;;;;;86.63;23.17;;;11.30;70.10;;;;;;6227846;28;20038;-71
2022/02/17 02:08:31;;;;;;;27.70;13.15;;;11.30;70.20;;;;;;6203075;28;20434;-71
2022/02/17 02:11:35;;;;;;;28.45;14.52;;;11.30;70.30;;;;;;6159367;28;21015;-72
2022/02/17 02:14:54;;;;;;;31.38;12.50;;;11.30;70.40;;;;;;6158801;28;20195;-72
2022/02/17 02:18:00;;;;;;;35.85;13.73;;;11.30;70.50;;;;;;6164502;28;20041;-72
2022/02/17 02:21:03;;;;;;;29.05;13.30;;;11.30;70.50;;;;;;6165684;28;20337;-72
2022/02/17 02:24:07;;;;;;;32.90;14.05;;;11.40;70.50;;;;;;6140361;28;20598;-71
2022/02/17 02:27:15;;;;;;;28.00;13.63;;;11.40;70.30;;;;;;6132957;28;20097;-73
2022/02/17 02:30:17;;;;;;;30.20;13.77;;;11.40;70.20;;;;;;6171471;28;20049;-72
2022/02/17 02:33:19;;;;;;;26.55;12.30;;;11.50;70.20;;;;;;6151291;28;20050;-74
2022/02/17 02:36:20;;;;;;;27.98;13.23;;;11.50;70.20;;;;;;6171675;28;20056;-71
2022/02/17 02:39:20;;;;;;;31.85;13.70;;;11.50;70.10;;;;;;6216132;28;20038;-72
2022/02/17 02:42:27;;;;;;;29.75;14.30;;;11.40;70.10;;;;;;6202486;28;20466;-72
2022/02/17 02:45:28;;;;;;;26.13;13.02;;;11.40;70.20;;;;;;6220545;28;20038;-71
2022/02/17 02:48:29;;;;;;;30.55;14.07;;;11.30;70.40;;;;;;6219236;28;20495;-73
2022/02/17 02:51:30;;;;;;;31.67;14.65;;;11.30;70.70;;;;;;6199961;28;20044;-72
2022/02/17 02:54:31;;;;;;;30.95;13.38;;;11.20;70.80;;;;;;6219796;28;20030;-72
2022/02/17 02:57:32;;;;;;;32.20;14.13;;;11.20;70.90;;;;;;6236169;28;20042;-72
2022/02/17 03:00:33;;;;;;;34.55;14.40;;;11.20;71.00;;;;;;6230464;28;20042;-73
2022/02/17 03:03:34;;;;;;;25.92;13.30;;;11.20;71.10;;;;;;6234979;28;20046;-72
2022/02/17 03:06:37;;;;;;;32.65;13.82;;;11.10;71.10;;;;;;6208931;28;20080;-72
2022/02/17 03:09:38;;;;;;;30.05;14.23;;;11.10;71.30;;;;;;6210790;28;20466;-72
2022/02/17 03:12:42;;;;;;;35.20;14.25;;;11.00;71.20;;;;;;6200887;28;20375;-72
2022/02/17 03:15:57;;;;;;;28.30;13.00;;;11.00;71.40;;;;;;6232280;28;20037;-72
2022/02/17 03:18:59;;;;;;;32.53;13.55;;;11.00;71.70;;;;;;6215058;28;20471;-72
2022/02/17 03:22:00;;;;;;;34.08;13.77;;;10.90;71.60;;;;;;6216802;28;20103;-72
2022/02/17 03:25:07;;;;;;;29.45;14.13;;;10.90;71.80;;;;;;6216075;28;20110;-72
2022/02/17 03:28:08;;;;;;;30.25;12.93;;;10.90;71.90;;;;;;6210019;28;20088;-72
2022/02/17 03:31:15;;;;;;;27.27;13.35;;;11.00;72.00;;;;;;6218149;28;20050;-72
2022/02/17 03:34:30;;;;;;;34.25;15.10;;;11.10;72.00;;;;;;6236072;28;20029;-72
2022/02/17 03:37:33;;;;;;;29.38;13.23;;;11.10;71.70;;;;;;6233353;28;20412;-73
2022/02/17 03:40:34;;;;;;;31.50;14.52;;;11.20;71.60;;;;;;6221566;28;20122;-72
2022/02/17 03:43:36;;;;;;;34.65;15.38;;;11.20;71.50;;;;;;6203951;28;20417;-71
2022/02/17 03:46:39;;;;;;;31.42;14.45;;;11.30;71.50;;;;;;6197641;28;20053;-72
2022/02/17 03:49:44;;;;;;;37.13;14.75;;;11.30;71.40;;;;;;6231464;28;20089;-72
2022/02/17 03:52:45;;;;;;;30.20;14.27;;;11.30;71.40;;;;;;6215836;28;20113;-72
2022/02/17 03:55:50;;;;;;;38.65;15.40;;;11.40;71.30;;;;;;6215915;28;20037;-72
2022/02/17 03:59:00;;;;;;;36.40;15.98;;;11.40;71.30;;;;;;6212559;28;20121;-72
2022/02/17 04:02:02;;;;;;;31.45;15.00;;;11.40;71.20;;;;;;6215825;28;20097;-72
2022/02/17 04:05:03;;;;;;;38.00;15.80;;;11.40;71.20;;;;;;6215591;28;20030;-72
2022/02/17 04:08:05;;;;;;;34.38;14.85;;;11.50;71.20;;;;;;6212189;28;20045;-72
2022/02/17 04:11:07;;;;;;;29.55;14.68;;;11.50;71.00;;;;;;6215242;28;20057;-72
2022/02/17 04:14:15;;;;;;;33.03;15.18;;;11.50;70.80;;;;;;6211235;28;20053;-73
2022/02/17 04:17:21;;;;;;;32.05;14.85;;;11.60;70.80;;;;;;6232304;28;20141;-72
2022/02/17 04:20:41;;;;;;;34.78;15.80;;;11.60;70.80;;;;;;6227366;28;20049;-72
2022/02/17 04:24:03;;;;;;;35.97;14.05;;;11.70;70.80;;;;;;6213903;28;20481;-72
2022/02/17 04:27:08;;;;;;;33.10;14.98;;;11.70;70.60;;;;;;6213825;28;20525;-72
2022/02/17 04:30:11;;;;;;;31.70;13.15;;;11.70;70.40;;;;;;6217481;28;20037;-73
2022/02/17 04:33:11;;;;;;;29.63;13.90;;;11.70;70.40;;;;;;6214700;28;20042;-72
2022/02/17 04:36:27;;;;;;;30.55;13.13;;;11.70;70.40;;;;;;6212026;28;20100;-72
2022/02/17 04:39:28;;;;;;;31.38;13.48;;;11.70;70.40;;;;;;6217484;28;20034;-71
2022/02/17 04:42:31;;;;;;;29.48;13.25;;;11.70;70.40;;;;;;6214098;28;20128;-72
2022/02/17 04:45:36;;;;;;;30.67;13.75;;;11.70;70.40;;;;;;6209259;28;20047;-71
2022/02/17 04:48:37;;;;;;;30.40;14.27;;;11.70;70.40;;;;;;6195148;28;20033;-72
2022/02/17 04:51:43;;;;;;;25.73;12.70;;;11.70;70.50;;;;;;6218209;28;20034;-72
2022/02/17 04:55:36;;;;;;;31.13;13.02;;;11.70;70.40;;;;;;6211345;28;20053;-72
2022/02/17 04:58:37;;;;;;;33.25;13.10;;;11.60;70.40;;;;;;6212725;28;20038;-72
2022/02/17 05:01:38;;;;;;;29.58;13.77;;;11.60;70.60;;;;;;6208761;28;20360;-72
2022/02/17 05:04:49;;;;;;;28.10;11.45;;;11.50;70.60;;;;;;6213188;28;20045;-73
2022/02/17 05:07:53;;;;;;;31.10;14.30;;;11.50;70.70;;;;;;6209992;28;20030;-72
2022/02/17 05:10:56;;;;;;;30.40;14.57;;;11.50;70.70;;;;;;6217366;28;20049;-72
2022/02/17 05:13:57;;;;;;;31.10;14.27;;;11.50;70.70;;;;;;6217346;28;20511;-72
2022/02/17 05:16:58;;;;;;;32.67;14.15;;;11.50;70.80;;;;;;6215592;28;20363;-72
2022/02/17 05:20:03;;;;;;;36.00;13.68;;;11.40;70.80;;;;;;6193042;28;20041;-72
2022/02/17 05:23:21;;;;;;;32.53;14.93;;;11.40;71.00;;;;;;6233534;28;20034;-72
2022/02/17 05:26:48;;;;;;;33.63;14.35;;;11.40;71.10;;;;;;6209387;28;20042;-72
2022/02/17 05:30:08;;;;;;;38.00;16.10;;;11.50;71.10;;;;;;6215635;28;20434;-72
2022/02/17 05:33:21;;;;;;;33.10;14.68;;;11.60;71.00;;;;;;6221198;28;20480;-71
2022/02/17 05:36:49;;;;;;;35.50;14.80;;;11.60;70.90;;;;;;6141839;28;20051;-73
2022/02/17 05:40:11;;;;;;;29.35;13.40;;;11.60;70.80;;;;;;6129801;28;20131;-72
2022/02/17 05:43:13;;;;;;;36.70;15.55;;;11.60;70.70;;;;;;6126767;28;20048;-72
2022/02/17 05:46:14;;;;;;;28.75;13.23;;;11.60;70.80;;;;;;6144100;28;20036;-71
2022/02/17 05:49:17;;;;;;;33.90;13.80;;;11.60;70.90;;;;;;6137205;28;20040;-72
2022/02/17 05:52:18;;;;;;;32.95;14.43;;;11.60;71.00;;;;;;6154402;28;20055;-72
2022/02/17 05:55:27;;;;;;;31.45;14.57;;;11.60;70.90;;;;;;6157519;28;20035;-71
2022/02/17 05:58:28;;;;;;;34.88;14.80;;;11.60;71.00;;;;;;6134667;28;20035;-72
2022/02/17 06:01:29;;;;;;;29.60;12.93;;;11.60;71.00;;;;;;6147818;28;20047;-73
2022/02/17 06:04:30;;;;;;;32.25;13.15;;;11.60;71.00;;;;;;6146174;28;20401;-72
2022/02/17 06:07:31;;;;;;;27.33;13.77;;;11.60;71.10;;;;;;6143346;28;20048;-72
2022/02/17 06:10:32;;;;;;;33.35;13.18;;;11.60;71.20;;;;;;6146208;28;20039;-72
2022/02/17 06:13:33;;;;;;;30.08;13.07;;;11.60;71.20;;;;;;6180268;28;20127;-71
2022/02/17 06:16:34;;;;;;;31.05;13.95;;;11.50;71.40;;;;;;6216895;28;20038;-73
2022/02/17 06:19:34;;;;;;;27.27;13.85;;;11.50;71.60;;;;;;6219952;28;20454;-73
2022/02/17 06:22:48;;;;;;;28.55;12.75;;;11.50;71.60;;;;;;6217751;28;20092;-72
2022/02/17 06:25:49;;;;;;;34.97;14.43;;;11.60;71.80;;;;;;6232656;28;20480;-72
2022/02/17 06:28:50;;;;;;;32.67;14.38;;;11.50;71.60;;;;;;6216923;28;20086;-73
2022/02/17 06:31:50;;;;;;;29.90;12.35;;;11.60;71.70;;;;;;6216572;28;20135;-72
2022/02/17 06:35:24;;;;;;;32.47;14.00;;;11.60;71.80;;;;;;6219576;28;20057;-73
2022/02/17 06:38:26;;;;;;;33.47;14.18;;;11.50;71.90;;;;;;6214015;28;20431;-73
2022/02/17 06:41:28;;;;;;;32.45;14.30;;;11.50;71.90;;;;;;6219092;28;20046;-72
2022/02/17 06:44:29;;;;;;;30.65;12.98;;;11.50;72.00;;;;;;6199913;28;20467;-72
2022/02/17 06:47:32;;;;;;;38.35;13.88;;;11.50;72.00;;;;;;6213950;28;20359;-72
2022/02/17 06:50:34;;;;;;;31.83;15.60;;;11.50;72.00;;;;;;6220945;28;20044;-72
2022/02/17 06:53:35;;;;;;;31.08;13.55;;;11.50;72.10;;;;;;6206435;28;20033;-72
2022/02/17 06:56:36;;;;;;;34.25;15.07;;;11.50;72.20;;;;;;6222634;28;20049;-73
2022/02/17 06:59:38;;;;;;;35.83;16.48;;;11.50;72.20;;;;;;6221380;28;20401;-73
2022/02/17 07:02:39;;;;;;;31.10;15.05;;;11.60;73.00;;;;;;6216176;28;20376;-73
2022/02/17 07:05:40;;;;;;;27.70;12.32;;;11.60;72.20;;;;;;6231066;28;20045;-71
2022/02/17 07:08:43;;;;;;;33.50;14.88;;;11.60;72.10;;;;;;6233648;28;20042;-73
2022/02/17 07:11:44;;;;;;;33.00;14.80;;;11.60;72.20;;;;;;6201499;28;20038;-72
2022/02/17 07:15:10;;;;;;;38.03;14.48;;;11.60;72.20;;;;;;6218378;28;20104;-73
2022/02/17 07:18:11;;;;;;;39.38;15.90;;;11.60;72.20;;;;;;6214965;28;20030;-73
2022/02/17 07:21:12;;;;;;;32.05;14.18;;;11.70;72.20;;;;;;6215237;28;20454;-72
2022/02/17 07:24:13;;;;;;;32.40;15.18;;;11.70;72.20;;;;;;6214910;28;20390;-73
2022/02/17 07:27:14;;;;;;;39.88;14.93;;;11.90;72.20;;;;;;6218742;28;20066;-72
2022/02/17 07:30:15;;;;;;;32.50;14.68;;;11.90;72.00;;;;;;6230845;28;20045;-73
2022/02/17 07:33:17;;;;;;;32.90;14.80;;;12.00;71.90;;;;;;6217649;28;20137;-73
2022/02/17 07:36:18;;;;;;;28.85;14.73;;;12.00;71.70;;;;;;6211798;28;20049;-72
2022/02/17 07:39:19;;;;;;;37.22;15.05;;;12.10;71.60;;;;;;6203014;28;20037;-72
2022/02/17 07:42:19;;;;;;;40.97;16.27;;;12.10;71.50;;;;;;6210437;28;20489;-73
2022/02/17 07:45:21;;;;;;;38.08;15.88;;;12.10;71.40;;;;;;6208353;28;20037;-73
2022/02/17 07:48:23;;;;;;;35.53;15.35;;;12.10;71.40;;;;;;6212919;28;20353;-71
2022/02/17 07:51:23;;;;;;;30.83;15.55;;;12.10;71.40;;;;;;6220654;28;20042;-71
2022/02/17 07:55:05;;;;;;;38.88;15.95;;;12.20;71.30;;;;;;6210256;28;20048;-72
2022/02/17 07:58:10;;;;;;;38.78;14.98;;;12.10;71.20;;;;;;6195210;28;20030;-72
2022/02/17 08:01:18;;;;;;;40.42;16.95;;;12.20;71.20;;;;;;6212747;28;20038;-73
2022/02/17 08:04:18;;;;;;;34.33;16.10;;;12.30;71.10;;;;;;6211527;28;20088;-71
2022/02/17 08:07:19;;;;;;;41.45;18.60;;;12.30;70.80;;;;;;6226320;28;20064;-72
2022/02/17 08:10:23;;;;;;;32.17;15.65;;;12.40;70.70;;;;;;6227199;28;20038;-72
2022/02/17 08:13:24;;;;;;;34.92;15.23;;;12.50;70.70;;;;;;6212738;28;20029;-72
2022/02/17 08:16:26;;;;;;;35.28;15.45;;;12.60;70.40;;;;;;6212763;28;20556;-72
2022/02/17 08:19:27;;;;;;;34.50;15.73;;;12.70;70.30;;;;;;6211221;28;20033;-72
2022/02/17 08:22:28;;;;;;;37.65;16.10;;;12.70;70.20;;;;;;6215041;28;20037;-69
2022/02/17 08:25:29;;;;;;;34.55;14.07;;;12.90;70.20;;;;;;6212967;28;20041;-70
2022/02/17 08:28:30;;;;;;;34.58;14.00;;;12.90;69.90;;;;;;6210685;28;20046;-71
2022/02/17 08:31:31;;;;;;;33.03;14.57;;;13.00;69.70;;;;;;6230997;28;20061;-71
2022/02/17 08:35:01;;;;;;;29.50;13.40;;;13.00;69.50;;;;;;6216692;28;20045;-71
2022/02/17 08:38:02;;;;;;;32.53;14.13;;;13.00;69.30;;;;;;6215832;28;20044;-72
2022/02/17 08:41:03;;;;;;;30.13;13.10;;;13.00;69.30;;;;;;6215748;28;20049;-71
2022/02/17 08:44:06;;;;;;;37.65;17.08;;;13.00;69.30;;;;;;6209216;28;20196;-71
2022/02/17 08:47:06;;;;;;;33.67;14.50;;;13.00;69.30;;;;;;6227970;28;20360;-71
2022/02/17 08:50:11;;;;;;;36.78;15.57;;;13.00;69.30;;;;;;6216659;28;20044;-71
2022/02/17 08:53:11;;;;;;;30.80;15.02;;;13.10;69.30;;;;;;6210419;28;20383;-72
2022/02/17 08:56:13;;;;;;;37.85;15.88;;;13.20;69.20;;;;;;6198319;28;20098;-73
2022/02/17 08:59:14;;;;;;;33.55;14.73;;;13.30;69.00;;;;;;6214810;28;20169;-74
2022/02/17 09:02:14;;;;;;;27.77;13.30;;;13.30;68.80;;;;;;6229143;28;20037;-74
2022/02/17 09:05:15;;;;;;;34.28;13.68;;;13.40;68.80;;;;;;6214115;28;20048;-74
2022/02/17 09:08:17;;;;;;;27.80;13.18;;;13.50;68.80;;;;;;6206775;28;20376;-73
2022/02/17 09:11:18;;;;;;;30.20;14.10;;;13.60;68.50;;;;;;6234244;28;20042;-74
2022/02/17 09:14:53;;;;;;;34.90;13.80;;;13.70;68.20;;;;;;6215695;28;20038;-73
2022/02/17 09:17:54;;;;;;;27.10;13.55;;;13.90;68.30;;;;;;6186410;28;20038;-75
2022/02/17 09:20:56;;;;;;;25.00;12.55;;;14.00;68.10;;;;;;6230816;28;20068;-74
2022/02/17 09:23:58;;;;;;;28.13;11.98;;;14.10;67.80;;;;;;6227475;28;20030;-73
2022/02/17 09:26:58;;;;;;;26.55;11.65;;;14.00;67.40;;;;;;6210474;28;20034;-75
2022/02/17 09:29:59;;;;;;;27.52;12.52;;;14.00;67.60;;;;;;6218522;28;20455;-75
2022/02/17 09:33:00;;;;;;;32.28;12.73;;;14.10;67.90;;;;;;6223879;28;20034;-74
2022/02/17 09:36:01;;;;;;;23.15;12.07;;;14.20;67.70;;;;;;6220865;28;20037;-76
2022/02/17 09:39:02;;;;;;;26.02;12.05;;;14.40;67.40;;;;;;6225085;28;20026;-75
2022/02/17 09:42:05;;;;;;;25.38;12.23;;;14.50;67.10;;;;;;6235562;28;20042;-74
2022/02/17 09:45:11;;;;;;;24.13;11.50;;;14.70;66.70;;;;;;6225885;28;20432;-75
2022/02/17 09:48:13;;;;;;;23.25;11.38;;;14.70;66.30;;;;;;6222309;28;20471;-75
2022/02/17 09:51:13;;;;;;;22.25;11.25;;;14.70;66.00;;;;;;6219949;28;20034;-75
2022/02/17 09:54:52;;;;;;;20.30;10.25;;;14.60;65.80;;;;;;6237709;28;20065;-75
2022/02/17 09:57:54;;;;;;;32.97;15.02;;;14.50;65.90;;;;;;6221945;28;20034;-75
2022/02/17 10:00:56;;;;;;;30.58;13.02;;;14.50;66.10;;;;;;6236503;28;20053;-75
2022/02/17 10:04:17;;;;;;;36.67;15.82;;;14.50;66.20;;;;;;6210310;28;20050;-75
2022/02/17 10:07:29;;;;;;;26.67;12.90;;;14.50;66.30;;;;;;6196616;28;20030;-74
2022/02/17 10:10:41;;;;;;;26.33;13.80;;;14.60;66.30;;;;;;6222223;28;20034;-75
2022/02/17 10:18:15;;;;;;;47.50;21.88;;;14.70;66.40;;;;;;6246391;28;20061;-75
2022/02/17 10:21:15;;;;;;;64.90;28.63;;;14.80;66.20;;;;;;6231220;28;20046;-75
2022/02/17 10:24:51;;;;;;;37.35;17.63;;;14.90;66.20;;;;;;6232468;28;20088;-75
2022/02/17 10:27:56;;;;;;;32.85;14.85;;;15.00;66.10;;;;;;6241663;28;20030;-75
2022/02/17 10:30:57;;;;;;;39.97;16.35;;;14.90;66.10;;;;;;6243663;28;20044;-75
2022/02/17 10:34:43;;;;;;;36.78;15.07;;;14.90;66.10;;;;;;6226388;28;20040;-75
2022/02/17 10:37:55;;;;;;;36.25;15.73;;;14.90;66.10;;;;;;6227537;28;20037;-75
2022/02/17 10:40:56;;;;;;;33.13;15.48;;;15.00;66.70;;;;;;6240343;28;20296;-76
2022/02/17 10:44:06;;;;;;;32.03;13.30;;;15.30;66.90;;;;;;6244675;28;20034;-75
2022/02/17 10:47:12;;;;;;;56.33;25.60;;;15.40;66.10;;;;;;6214681;28;20045;-74
2022/02/17 10:50:19;;;;;;;35.58;16.77;;;15.60;65.70;;;;;;6219438;28;20403;-75
2022/02/17 10:53:22;;;;;;;56.13;26.13;;;15.70;65.50;;;;;;6215314;28;20462;-74
2022/02/17 10:56:24;;;;;;;39.42;17.63;;;15.90;64.90;;;;;;6215297;28;20465;-75
2022/02/17 11:02:55;;;;;;;44.65;21.05;;;16.10;64.70;;;;;;6220146;28;20798;-76
2022/02/17 11:05:56;;;;;;;43.10;21.38;;;16.40;64.80;;;;;;6222402;28;20403;-75
2022/02/17 11:08:58;;;;;;;38.22;16.50;;;16.80;64.40;;;;;;6233977;28;20509;-76
2022/02/17 11:11:58;;;;;;;32.13;15.45;;;17.30;63.20;;;;;;6218999;28;20046;-76
2022/02/17 11:15:00;;;;;;;29.55;15.73;;;17.70;61.50;;;;;;6220313;28;20466;-74
2022/02/17 11:18:01;;;;;;;23.65;13.30;;;17.80;60.70;;;;;;6219941;28;20439;-75
2022/02/17 11:21:03;;;;;;;45.22;21.65;;;17.90;60.60;;;;;;6218799;28;20092;-75
2022/02/17 11:24:07;;;;;;;29.65;14.75;;;18.10;60.00;;;;;;6200840;28;20042;-77
2022/02/17 11:27:08;;;;;;;37.58;17.15;;;18.40;59.40;;;;;;6195370;28;20053;-76
2022/02/17 11:30:28;;;;;;;29.23;15.35;;;18.70;58.80;;;;;;6216170;28;20078;-76
2022/02/17 11:33:39;;;;;;;59.08;26.45;;;19.00;58.40;;;;;;6214337;28;20035;-77
2022/02/17 11:37:25;;;;;;;34.08;16.10;;;19.60;57.10;;;;;;6192348;28;20034;-77
2022/02/17 11:40:26;;;;;;;23.25;10.77;;;20.20;55.60;;;;;;6204631;28;20042;-78
2022/02/17 11:43:31;;;;;;;13.80;8.63;;;20.60;54.30;;;;;;6212558;28;20046;-78
2022/02/17 11:46:41;;;;;;;20.05;10.13;;;21.00;53.10;;;;;;6186343;28;20108;-78
2022/02/17 11:49:47;;;;;;;20.98;10.60;;;21.30;52.40;;;;;;6230393;28;20442;-76
2022/02/17 11:53:24;;;;;;;18.00;10.25;;;21.70;51.70;;;;;;6208658;28;20056;-76
2022/02/17 11:56:33;;;;;;;21.70;9.82;;;22.00;50.50;;;;;;6177167;28;20049;-75
2022/02/17 11:59:36;;;;;;;24.40;11.70;;;22.40;50.00;;;;;;6167546;28;20459;-76
2022/02/17 12:02:41;;;;;;;19.77;9.90;;;22.90;49.20;;;;;;6148795;28;20092;-76
2022/02/17 12:05:43;;;;;;;17.85;10.18;;;23.50;48.50;;;;;;6152838;28;20053;-77
2022/02/17 12:08:54;;;;;;;22.02;10.13;;;24.10;47.60;;;;;;6173976;28;20038;-78
2022/02/17 12:11:56;;;;;;;15.65;8.05;;;24.40;46.50;;;;;;6171139;28;20042;-78
2022/02/17 12:15:03;;;;;;;16.77;8.55;;;24.00;46.10;;;;;;6156266;28;20034;-77
2022/02/17 12:18:04;;;;;;;14.50;8.00;;;23.80;47.00;;;;;;6173349;28;20037;-76
2022/02/17 12:21:05;;;;;;;20.45;8.70;;;24.20;46.30;;;;;;6171367;28;20122;-76
2022/02/17 12:24:08;;;;;;;20.10;8.10;;;24.70;45.20;;;;;;6170553;28;20035;-77
2022/02/17 12:27:23;;;;;;;18.80;9.10;;;25.10;44.60;;;;;;6172480;28;20034;-78
2022/02/17 12:30:49;;;;;;;24.20;7.40;;;25.10;44.20;;;;;;6170134;28;20034;-77
2022/02/17 12:34:28;;;;;;;16.15;7.68;;;25.10;44.00;;;;;;6204255;28;20386;-75
2022/02/17 12:37:30;;;;;;;12.57;7.32;;;25.30;43.90;;;;;;6190757;28;20471;-76
2022/02/17 12:40:35;;;;;;;12.63;6.90;;;25.40;43.00;;;;;;6181737;28;20139;-76
2022/02/17 12:43:46;;;;;;;31.23;8.20;;;25.00;43.60;;;;;;6190166;28;20037;-76
2022/02/17 12:46:51;;;;;;;20.77;7.38;;;24.70;44.20;;;;;;6214968;28;20154;-77
2022/02/17 12:50:06;;;;;;;10.82;6.25;;;24.30;45.10;;;;;;6220808;28;20164;-76
2022/02/17 12:53:08;;;;;;;13.55;6.43;;;23.90;45.80;;;;;;6216500;28;20046;-77
2022/02/17 12:56:11;;;;;;;13.23;7.25;;;23.60;45.80;;;;;;6211836;28;20041;-77
2022/02/17 12:59:19;;;;;;;11.45;6.47;;;23.20;46.50;;;;;;6228206;28;20041;-77
2022/02/17 13:02:21;;;;;;;11.80;6.57;;;22.90;47.20;;;;;;6192956;28;20112;-76
2022/02/17 13:05:22;;;;;;;14.43;8.05;;;22.50;47.60;;;;;;6205144;28;20038;-77
2022/02/17 13:08:24;;;;;;;18.05;7.82;;;22.00;48.30;;;;;;6203912;28;20100;-77
2022/02/17 13:11:28;;;;;;;14.15;7.18;;;21.60;49.30;;;;;;6197516;28;20475;-77
2022/02/17 13:14:44;;;;;;;11.60;6.28;;;21.30;50.20;;;;;;6199926;28;20037;-76
2022/02/17 13:17:45;;;;;;;10.10;6.38;;;21.00;50.90;;;;;;6228567;28;20087;-76
2022/02/17 13:20:46;;;;;;;13.45;7.03;;;20.70;51.60;;;;;;6211715;28;20034;-78
2022/02/17 13:23:49;;;;;;;9.40;5.63;;;20.40;52.30;;;;;;6197297;28;20080;-76
2022/02/17 13:26:50;;;;;;;13.40;6.85;;;20.20;52.90;;;;;;6206757;28;20508;-76
2022/02/17 13:30:02;;;;;;;17.85;7.43;;;20.00;53.40;;;;;;6198896;28;20048;-76
2022/02/17 13:33:05;;;;;;;12.80;6.65;;;19.90;54.00;;;;;;6212661;28;20080;-76
2022/02/17 13:36:06;;;;;;;12.38;6.28;;;19.80;54.20;;;;;;6203601;28;20050;-76
2022/02/17 13:39:14;;;;;;;14.90;6.65;;;19.80;54.50;;;;;;6230271;28;20048;-76
2022/02/17 13:42:20;;;;;;;11.57;5.80;;;19.80;54.60;;;;;;6215807;28;20476;-76
2022/02/17 13:45:23;;;;;;;18.80;7.88;;;19.90;54.70;;;;;;6212359;28;20034;-76
2022/02/17 13:48:27;;;;;;;14.13;7.40;;;19.90;54.70;;;;;;6213697;28;20033;-77
2022/02/17 13:51:28;;;;;;;13.48;5.63;;;19.90;54.60;;;;;;6215866;28;20045;-77
2022/02/17 13:54:58;;;;;;;32.25;15.18;;;20.00;54.60;;;;;;6213448;28;20038;-76
2022/02/17 13:58:00;;;;;;;17.30;7.78;;;20.00;54.60;;;;;;6210019;28;20045;-77
2022/02/17 14:01:02;;;;;;;8.05;4.47;;;20.10;54.40;;;;;;6214350;28;20108;-77
2022/02/17 14:04:04;;;;;;;4.75;3.22;;;20.10;54.30;;;;;;6208845;28;20042;-76
2022/02/17 14:07:05;;;;;;;5.75;3.20;;;20.00;54.20;;;;;;6209990;28;20162;-76
2022/02/17 14:10:38;;;;;;;6.57;4.00;;;19.90;54.20;;;;;;6212120;28;20459;-77
2022/02/17 14:14:10;;;;;;;22.42;10.30;;;19.90;54.40;;;;;;6215199;28;20037;-77
2022/02/17 14:17:16;;;;;;;21.73;7.22;;;19.90;54.40;;;;;;6220063;28;20058;-76
2022/02/17 14:20:19;;;;;;;;;;;19.90;54.40;;;;;;6233649;28;20033;-75
2022/02/17 14:23:20;;;;;;;7.97;2.53;;;19.90;54.40;;;;;;6218812;28;19924;-77
2022/02/17 14:26:21;;;;;;;4.28;2.50;;;19.90;54.30;;;;;;6219890;28;20482;-77
2022/02/17 14:29:22;;;;;;;3.67;2.25;;;19.90;54.30;;;;;;6221838;28;20068;-76
2022/02/17 14:32:22;;;;;;;2.92;2.10;;;19.80;54.40;;;;;;6217230;28;20042;-77
2022/02/17 14:35:23;;;;;;;8.98;2.78;;;19.70;54.50;;;;;;6221166;28;20410;-77
2022/02/17 14:38:25;;;;;;;5.40;3.03;;;19.60;54.80;;;;;;6216852;28;20451;-77
2022/02/17 14:41:25;;;;;;;5.18;2.60;;;19.60;55.00;;;;;;6210680;28;20046;-76
2022/02/17 14:44:27;;;;;;;10.52;2.67;;;19.50;55.10;;;;;;6211703;28;20042;-75
2022/02/17 14:47:28;;;;;;;5.47;2.72;;;19.50;55.30;;;;;;6222186;28;20044;-75
2022/02/17 14:50:29;;;;;;;6.45;2.88;;;19.50;55.40;;;;;;6222030;28;20120;-77
2022/02/17 14:54:05;;;;;;;6.13;3.40;;;19.40;55.60;;;;;;6236817;28;20404;-77
2022/02/17 14:57:06;;;;;;;9.55;4.22;;;19.30;55.80;;;;;;6218952;28;20030;-77
2022/02/17 15:00:08;;;;;;;11.18;4.47;;;19.30;56.00;;;;;;6210567;28;20042;-77
2022/02/17 15:03:09;;;;;;;6.57;3.72;;;19.30;56.20;;;;;;6218535;28;20030;-77
2022/02/17 15:06:10;;;;;;;5.32;3.50;;;19.30;56.20;;;;;;6214764;28;20040;-76
2022/02/17 15:09:12;;;;;;;9.90;3.25;;;19.30;56.30;;;;;;6217643;28;20577;-76
2022/02/17 15:12:13;;;;;;;4.82;2.65;;;19.40;56.30;;;;;;6220024;28;20363;-76
2022/02/17 15:15:14;;;;;;;4.45;2.60;;;19.40;56.10;;;;;;6216298;28;20130;-76
2022/02/17 15:18:15;;;;;;;5.05;2.40;;;19.40;56.00;;;;;;6196145;28;20098;-76
2022/02/17 15:21:16;;;;;;;4.38;2.50;;;19.40;55.90;;;;;;6214885;28;20045;-75
2022/02/17 15:24:17;;;;;;;6.93;2.35;;;19.40;55.80;;;;;;6217659;28;20061;-76
2022/02/17 15:27:18;;;;;;;5.57;3.33;;;19.40;55.80;;;;;;6219845;28;20057;-76
2022/02/17 15:30:21;;;;;;;7.90;3.80;;;19.50;55.70;;;;;;6234340;28;20467;-77
2022/02/17 15:34:00;;;;;;;10.05;4.70;;;19.50;55.60;;;;;;6218245;28;20030;-76
2022/02/17 15:37:01;;;;;;;5.30;3.33;;;19.40;55.70;;;;;;6214845;28;20030;-76
2022/02/17 15:40:06;;;;;;;6.13;3.53;;;19.30;55.80;;;;;;6212671;28;20116;-77
2022/02/17 15:43:07;;;;;;;4.93;2.78;;;19.20;55.90;;;;;;6220166;28;20363;-76
2022/02/17 15:46:08;;;;;;;5.72;3.47;;;19.10;56.20;;;;;;6210310;28;20037;-76
2022/02/17 15:49:09;;;;;;;8.68;3.53;;;19.00;56.50;;;;;;6231174;28;20045;-75
2022/02/17 15:52:10;;;;;;;14.52;7.28;;;18.90;56.90;;;;;;6216950;28;20339;-75
2022/02/17 15:55:11;;;;;;;11.00;4.65;;;18.80;57.10;;;;;;6214653;28;20037;-76